Creedmoor, North Carolina
Current Conditions -  °F | °C
As of 10:51 PM on Saturday 25 Oct 2014 (Local Time) from KRDU Reporting Station
Few Clouds Few Clouds  
Wind Chill: 53°   Ceiling: Unl
Heat Index: 53°   Visibility: 10mi
Dew Point: 44°   Wind: 3mph
Humidity: 71%   Direction: 240°WSW
Pressure: 29.88"   Gusts: NA
Location:  36.12°N, 78.69°W
Report Text: KRDU 260251Z 24003KT 10SM FEW250 12/07 A2988 RMK AO2 SLP117 T01170067 58005 $
Loading
Personal Weather Stations






























Interactive Weather Map New forecast layout! Learn more

10-Day Weather Forecast

Advertisements
Track Severe Weather on mobile